Time;durP1;ratioP1;P1;durP2;ratioP2;P2;SDS_P1;SDS_P2;PMS_P1;PMS_P2;Temp;Humidity;BMP_temperature;BMP_pressure;BME280_temperature;BME280_humidity;BME280_pressure;Samples;Min_cycle;Max_cycle;Signal;HPM_P1;HPM_P2
2022/03/30 00:00:23;;;;;;;40.65;17.70;;;;;;;8.33;64.69;100778.91;5018679;28;20025;-64
2022/03/30 00:02:49;;;;;;;36.22;18.20;;;;;;;8.29;64.70;100769.59;5019385;28;20104;-63
2022/03/30 00:05:14;;;;;;;42.10;17.92;;;;;;;8.22;65.06;100767.72;5012724;28;20156;-63
2022/03/30 00:07:39;;;;;;;40.97;18.38;;;;;;;8.16;64.79;100769.19;5021878;28;20100;-64
2022/03/30 00:10:05;;;;;;;40.15;18.00;;;;;;;8.14;65.03;100771.16;5013826;28;20478;-63
2022/03/30 00:12:31;;;;;;;39.58;18.20;;;;;;;8.11;65.07;100768.00;5026056;28;20028;-63
2022/03/30 00:14:56;;;;;;;43.42;17.35;;;;;;;8.07;65.35;100772.75;5025995;28;20025;-64
2022/03/30 00:17:22;;;;;;;39.38;18.40;;;;;;;8.03;65.23;100766.13;5024402;28;20030;-64
2022/03/30 00:19:47;;;;;;;34.75;17.70;;;;;;;8.00;65.57;100763.78;5021795;28;20044;-63
2022/03/30 00:22:13;;;;;;;42.28;19.38;;;;;;;7.96;65.30;100770.38;5019047;28;20256;-63
2022/03/30 00:24:38;;;;;;;39.63;18.25;;;;;;;7.93;65.63;100765.41;5022276;28;20029;-64
2022/03/30 00:27:06;;;;;;;39.42;18.77;;;;;;;7.89;65.61;100764.88;5016003;28;20091;-64
2022/03/30 00:29:32;;;;;;;36.30;19.42;;;;;;;7.84;65.61;100761.06;5016732;28;20079;-64
2022/03/30 00:31:57;;;;;;;41.70;19.40;;;;;;;7.75;65.97;100755.69;5023121;28;20056;-63
2022/03/30 00:34:22;;;;;;;40.55;18.90;;;;;;;7.67;66.00;100758.28;5019518;28;20068;-63
2022/03/30 00:36:48;;;;;;;39.13;19.73;;;;;;;7.60;66.21;100753.78;5023135;28;20811;-63
2022/03/30 00:39:13;;;;;;;38.33;19.02;;;;;;;7.57;66.58;100756.72;5024228;28;20025;-63
2022/03/30 00:41:38;;;;;;;41.58;20.20;;;;;;;7.47;66.59;100747.03;5018705;28;20037;-63
2022/03/30 00:44:09;;;;;;;41.83;19.33;;;;;;;7.41;66.53;100752.94;5024691;28;20460;-63
2022/03/30 00:46:34;;;;;;;40.50;18.45;;;;;;;7.38;66.53;100749.78;5013825;28;20033;-63
2022/03/30 00:49:02;;;;;;;38.72;19.52;;;;;;;7.34;66.76;100751.06;5020614;28;20103;-63
2022/03/30 00:51:27;;;;;;;40.25;18.90;;;;;;;7.28;66.80;100749.88;5013905;28;20048;-63
2022/03/30 00:53:52;;;;;;;45.78;19.90;;;;;;;7.24;66.88;100752.97;5021403;28;20244;-63
2022/03/30 00:56:18;;;;;;;43.40;19.20;;;;;;;7.19;66.91;100753.41;5024394;28;20032;-63
2022/03/30 00:58:43;;;;;;;40.92;19.10;;;;;;;7.15;66.96;100760.78;5015511;28;20474;-63
2022/03/30 01:01:08;;;;;;;42.80;19.38;;;;;;;7.12;67.31;100752.34;5021335;28;20064;-64
2022/03/30 01:03:35;;;;;;;36.35;18.55;;;;;;;7.09;67.35;100750.84;5012643;28;20026;-63
2022/03/30 01:06:00;;;;;;;47.05;19.33;;;;;;;7.05;67.03;100740.72;5016490;28;20030;-63
2022/03/30 01:08:25;;;;;;;39.25;19.27;;;;;;;7.02;67.60;100744.50;5017477;28;20041;-63
2022/03/30 01:10:51;;;;;;;38.37;19.40;;;;;;;7.00;67.37;100743.81;5023799;28;20026;-63
2022/03/30 01:13:17;;;;;;;37.37;20.37;;;;;;;6.96;67.60;100737.19;5025508;28;20354;-64
2022/03/30 01:15:45;;;;;;;44.15;20.95;;;;;;;6.91;67.80;100734.16;5023560;28;20477;-64
2022/03/30 01:18:10;;;;;;;40.83;19.98;;;;;;;6.91;67.67;100731.50;5018836;28;20040;-64
2022/03/30 01:20:35;;;;;;;45.22;20.73;;;;;;;6.88;67.73;100733.63;5021495;28;20025;-64
2022/03/30 01:23:02;;;;;;;44.17;20.25;;;;;;;6.82;68.01;100733.25;5015179;28;20095;-63
2022/03/30 01:25:27;;;;;;;42.87;20.83;;;;;;;6.81;68.25;100736.03;5022513;28;20041;-63
2022/03/30 01:27:53;;;;;;;43.30;20.70;;;;;;;6.79;68.35;100738.00;5023552;28;20036;-64
2022/03/30 01:33:06;;;;;;;47.85;21.25;;;;;;;6.76;68.32;100738.28;5021176;28;20032;-64
2022/03/30 01:35:31;;;;;;;45.05;20.40;;;;;;;6.72;68.44;100735.13;5025268;28;20045;-64
2022/03/30 01:37:57;;;;;;;40.83;20.73;;;;;;;6.68;68.27;100738.22;5022887;28;20026;-64
2022/03/30 01:40:22;;;;;;;39.55;20.42;;;;;;;6.63;68.32;100729.88;5024250;28;20049;-64
2022/03/30 01:42:48;;;;;;;40.85;19.92;;;;;;;6.60;68.49;100730.19;5023723;28;20034;-63
2022/03/30 01:45:15;;;;;;;44.13;21.37;;;;;;;6.56;68.88;100720.91;5020057;28;20022;-63
2022/03/30 01:47:46;;;;;;;42.55;21.48;;;;;;;6.50;68.54;100712.59;5021380;28;20479;-63
2022/03/30 01:50:12;;;;;;;45.43;20.63;;;;;;;6.49;68.77;100724.13;5016886;28;20470;-64
2022/03/30 01:52:37;;;;;;;40.92;21.55;;;;;;;6.46;68.88;100716.50;5027087;28;20029;-63
2022/03/30 01:55:02;;;;;;;42.77;20.30;;;;;;;6.41;69.05;100712.66;5020454;28;20048;-64
2022/03/30 01:57:28;;;;;;;43.47;20.30;;;;;;;6.37;68.95;100712.13;5021891;28;20120;-64
2022/03/30 01:59:53;;;;;;;44.93;21.87;;;;;;;6.31;69.12;100704.78;5019207;28;20029;-63
2022/03/30 02:02:19;;;;;;;46.77;20.60;;;;;;;6.29;69.25;100706.72;5021232;28;20037;-64
2022/03/30 02:04:45;;;;;;;40.87;20.23;;;;;;;6.26;69.21;100696.47;5025919;28;20025;-63
2022/03/30 02:07:10;;;;;;;43.40;20.70;;;;;;;6.27;69.41;100700.78;5022001;28;20029;-64
2022/03/30 02:09:37;;;;;;;46.57;21.80;;;;;;;6.25;69.49;100697.47;5024641;28;20025;-63
2022/03/30 02:12:03;;;;;;;44.00;21.37;;;;;;;6.23;69.62;100699.41;5022566;28;20029;-63
2022/03/30 02:14:28;;;;;;;49.13;21.77;;;;;;;6.26;69.52;100695.66;5024523;28;20029;-64
2022/03/30 02:16:54;;;;;;;46.63;21.53;;;;;;;6.23;69.69;100688.88;5019270;28;20025;-63
2022/03/30 02:19:20;;;;;;;46.30;21.47;;;;;;;6.21;69.54;100678.47;5023873;28;20101;-63
2022/03/30 02:21:45;;;;;;;44.70;21.40;;;;;;;6.16;69.66;100675.44;5026245;28;20140;-64
2022/03/30 02:24:11;;;;;;;46.93;20.87;;;;;;;6.15;69.82;100667.69;5029912;28;20034;-64
2022/03/30 02:26:36;;;;;;;42.00;21.03;;;;;;;6.13;69.73;100659.09;5021533;28;20021;-64
2022/03/30 02:29:02;;;;;;;44.27;21.13;;;;;;;6.12;70.05;100663.53;5021385;28;20087;-63
2022/03/30 02:31:27;;;;;;;43.20;21.33;;;;;;;6.09;70.21;100661.19;5025140;28;20033;-64
2022/03/30 02:33:52;;;;;;;49.10;21.37;;;;;;;6.12;70.24;100660.06;5020080;28;20025;-64
2022/03/30 02:36:18;;;;;;;44.23;21.13;;;;;;;6.10;70.38;100656.75;5023116;28;20025;-63
2022/03/30 02:38:44;;;;;;;37.47;20.73;;;;;;;6.09;70.45;100653.28;5022061;28;20017;-63
2022/03/30 02:41:10;;;;;;;45.73;21.40;;;;;;;6.05;70.47;100646.63;5019380;28;20025;-64
2022/03/30 02:43:37;;;;;;;42.40;21.03;;;;;;;6.05;70.38;100648.41;5016393;28;20045;-63
2022/03/30 02:46:03;;;;;;;39.70;20.77;;;;;;;6.06;70.58;100652.72;5022829;28;20029;-63
2022/03/30 02:48:28;;;;;;;42.20;20.93;;;;;;;6.04;70.71;100650.22;5018747;28;20025;-63
2022/03/30 02:50:56;;;;;;;48.07;21.50;;;;;;;6.04;70.68;100650.22;5017754;28;20049;-64
2022/03/30 02:53:22;;;;;;;44.27;21.20;;;;;;;6.01;70.87;100653.16;5024301;28;20071;-63
2022/03/30 02:55:48;;;;;;;44.33;20.87;;;;;;;6.00;70.84;100645.41;5029807;28;20034;-64
2022/03/30 02:58:14;;;;;;;40.77;20.17;;;;;;;6.02;71.02;100643.44;5017181;28;20037;-64
2022/03/30 03:00:39;;;;;;;45.93;21.70;;;;;;;5.99;71.24;100641.09;5029471;28;20033;-63
2022/03/30 03:03:07;;;;;;;49.63;21.60;;;;;;;5.98;70.99;100639.44;5024241;28;20026;-64
2022/03/30 03:05:33;;;;;;;48.57;21.40;;;;;;;5.98;71.15;100640.28;5024535;28;20120;-63
2022/03/30 03:07:59;;;;;;;46.10;21.13;;;;;;;5.94;71.06;100638.06;5023944;28;20443;-64
2022/03/30 03:10:25;;;;;;;45.13;20.80;;;;;;;5.93;71.43;100633.78;5024690;28;20573;-64
2022/03/30 03:12:51;;;;;;;48.83;22.20;;;;;;;5.90;71.30;100635.75;5027357;28;20434;-64
2022/03/30 03:15:16;;;;;;;48.60;21.93;;;;;;;5.90;71.39;100630.47;5028115;28;20275;-63
2022/03/30 03:17:42;;;;;;;42.83;21.20;;;;;;;5.89;71.66;100633.22;5024270;28;20165;-63
2022/03/30 03:20:08;;;;;;;50.37;22.10;;;;;;;5.88;71.60;100628.94;5029538;28;20448;-63
2022/03/30 03:22:33;;;;;;;51.40;21.77;;;;;;;5.84;71.79;100622.28;5023282;28;20064;-63
2022/03/30 03:24:58;;;;;;;49.00;22.60;;;;;;;5.81;71.88;100626.03;5020323;28;20052;-64
2022/03/30 03:27:23;;;;;;;47.03;21.10;;;;;;;5.77;71.87;100622.00;5022784;28;20421;-64
2022/03/30 03:29:49;;;;;;;48.70;21.57;;;;;;;5.76;71.61;100624.78;5024778;28;20021;-63
2022/03/30 03:32:15;;;;;;;50.13;22.10;;;;;;;5.72;71.62;100619.00;5018063;28;20029;-64
2022/03/30 03:34:40;;;;;;;47.83;22.20;;;;;;;5.69;72.41;100619.28;5015257;28;20028;-64
2022/03/30 03:37:05;;;;;;;42.10;20.90;;;;;;;5.69;71.83;100614.00;5023893;28;20048;-63
2022/03/30 03:39:30;;;;;;;47.20;22.50;;;;;;;5.67;71.84;100610.69;5022546;28;20026;-63
2022/03/30 03:41:56;;;;;;;45.80;21.53;;;;;;;5.60;71.95;100610.44;5014287;28;20029;-63
2022/03/30 03:44:21;;;;;;;49.30;21.23;;;;;;;5.54;71.75;100615.47;5020303;28;20021;-64
2022/03/30 03:46:46;;;;;;;44.77;22.60;;;;;;;5.49;72.06;100622.94;5025667;28;20104;-64
2022/03/30 03:49:12;;;;;;;49.67;22.10;;;;;;;5.47;72.17;100619.63;5021146;28;20513;-63
2022/03/30 03:51:37;;;;;;;41.80;21.03;;;;;;;5.45;72.08;100611.03;5018926;28;20029;-64
2022/03/30 03:54:02;;;;;;;44.83;21.50;;;;;;;5.42;72.18;100608.69;5020989;28;20389;-63
2022/03/30 03:56:28;;;;;;;43.93;21.30;;;;;;;5.38;72.30;100609.97;5023460;28;20083;-64
2022/03/30 03:58:53;;;;;;;51.20;22.50;;;;;;;5.34;72.25;100612.03;5017663;28;20781;-63
2022/03/30 04:01:18;;;;;;;47.27;22.37;;;;;;;5.32;72.36;100608.72;5019019;28;20033;-63
2022/03/30 04:03:43;;;;;;;43.90;21.00;;;;;;;5.28;72.54;100610.00;5017739;28;20021;-64
2022/03/30 04:06:09;;;;;;;44.20;22.07;;;;;;;5.24;72.48;100604.19;5018894;28;20033;-63
2022/03/30 04:08:35;;;;;;;47.27;22.23;;;;;;;5.15;72.39;100596.28;5020748;28;20026;-64
2022/03/30 04:11:01;;;;;;;40.83;20.77;;;;;;;5.12;72.38;100607.09;5012578;28;20018;-64
2022/03/30 04:13:26;;;;;;;50.37;21.27;;;;;;;5.07;72.43;100602.25;5020215;28;20037;-63
2022/03/30 04:15:51;;;;;;;43.50;20.73;;;;;;;5.02;72.43;100606.28;5016458;28;20104;-64
2022/03/30 04:18:17;;;;;;;40.27;20.90;;;;;;;5.02;72.58;100608.91;5015787;28;20478;-63
2022/03/30 04:20:43;;;;;;;41.53;20.30;;;;;;;4.98;72.70;100600.47;5021729;28;20530;-64
2022/03/30 04:23:09;;;;;;;43.53;20.90;;;;;;;4.99;72.70;100604.78;5020527;28;20113;-64
2022/03/30 04:25:34;;;;;;;54.60;22.10;;;;;;;4.97;72.95;100602.28;5021708;28;20108;-63
2022/03/30 04:27:59;;;;;;;45.50;21.60;;;;;;;4.96;73.03;100599.78;5028060;28;20025;-63
2022/03/30 04:30:25;;;;;;;47.87;20.70;;;;;;;4.94;73.19;100599.94;5021896;28;20037;-64
2022/03/30 04:32:51;;;;;;;57.87;21.50;;;;;;;4.89;73.15;100594.25;5014026;28;20028;-64
2022/03/30 04:35:18;;;;;;;46.30;20.93;;;;;;;4.84;73.02;100595.63;5015223;28;20025;-64
2022/03/30 04:37:43;;;;;;;46.50;20.50;;;;;;;4.82;73.15;100594.94;5023940;28;20040;-63
2022/03/30 04:40:09;;;;;;;48.57;21.33;;;;;;;4.81;73.02;100595.91;5017320;28;20018;-64
2022/03/30 04:42:35;;;;;;;45.10;22.00;;;;;;;4.77;73.16;100598.00;5014666;28;20021;-64
2022/03/30 04:45:00;;;;;;;46.50;20.53;;;;;;;4.78;73.21;100598.81;5015614;28;20026;-64
2022/03/30 04:47:26;;;;;;;47.00;21.83;;;;;;;4.75;73.42;100599.09;5018652;28;20037;-63
2022/03/30 04:49:52;;;;;;;48.50;20.80;;;;;;;4.68;73.25;100603.25;5014470;28;20017;-63
2022/03/30 04:52:18;;;;;;;45.80;21.10;;;;;;;4.61;73.18;100602.97;5019165;28;20022;-64
2022/03/30 04:54:43;;;;;;;48.77;21.37;;;;;;;4.58;73.35;100598.81;5019700;28;20028;-64
2022/03/30 04:57:09;;;;;;;45.13;21.97;;;;;;;4.57;73.42;100604.22;5021132;28;20208;-64
2022/03/30 04:59:34;;;;;;;48.97;21.73;;;;;;;4.55;73.42;100601.72;5011519;28;20469;-63
2022/03/30 05:01:59;;;;;;;51.47;21.37;;;;;;;4.55;73.56;100603.53;5019026;28;20022;-63
2022/03/30 05:04:25;;;;;;;48.43;21.93;;;;;;;4.53;73.75;100595.78;5026451;28;20032;-64
2022/03/30 05:06:50;;;;;;;47.90;22.17;;;;;;;4.48;73.73;100602.41;5027048;28;20025;-64
2022/03/30 05:09:15;;;;;;;46.40;21.70;;;;;;;4.41;73.87;100594.25;5025649;28;20112;-63
2022/03/30 05:11:41;;;;;;;51.30;22.43;;;;;;;4.36;74.03;100599.09;5026324;28;20532;-63
2022/03/30 05:14:06;;;;;;;47.93;22.97;;;;;;;4.29;73.91;100593.53;5026703;28;20033;-63
2022/03/30 05:16:33;;;;;;;50.30;21.63;;;;;;;4.29;74.25;100595.31;5026355;28;20030;-64
2022/03/30 05:18:59;;;;;;;45.33;21.70;;;;;;;4.25;74.18;100583.44;5026054;28;20404;-63
2022/03/30 05:21:25;;;;;;;49.23;23.13;;;;;;;4.22;74.39;100584.53;5026759;28;20013;-63
2022/03/30 05:23:50;;;;;;;50.60;22.47;;;;;;;4.20;74.46;100588.25;5026961;28;20037;-64
2022/03/30 05:26:16;;;;;;;49.53;22.73;;;;;;;4.18;74.37;100584.94;5016391;28;20401;-62
2022/03/30 05:28:42;;;;;;;49.40;21.73;;;;;;;4.19;74.56;100587.44;5026275;28;20507;-63
2022/03/30 05:31:07;;;;;;;51.13;22.43;;;;;;;4.19;74.71;100584.81;5026447;28;20037;-64
2022/03/30 05:33:33;;;;;;;48.90;21.37;;;;;;;4.20;74.69;100585.63;5026361;28;20508;-63
2022/03/30 05:35:58;;;;;;;50.67;22.33;;;;;;;4.20;74.77;100583.84;5026237;28;20103;-62
2022/03/30 05:38:24;;;;;;;46.33;21.47;;;;;;;4.18;74.92;100591.03;5025816;28;20032;-63
2022/03/30 05:40:50;;;;;;;50.00;22.63;;;;;;;4.17;74.91;100586.75;5022650;28;20461;-63
2022/03/30 05:43:16;;;;;;;47.43;22.63;;;;;;;4.16;75.08;100581.63;5025856;28;20283;-63
2022/03/30 05:45:42;;;;;;;48.80;21.73;;;;;;;4.17;75.00;100581.47;5026543;28;20021;-64
2022/03/30 05:48:09;;;;;;;46.43;21.90;;;;;;;4.22;75.34;100583.69;5025920;28;20312;-62
2022/03/30 05:50:34;;;;;;;55.13;22.90;;;;;;;4.25;75.47;100580.81;5026311;28;20022;-63
2022/03/30 05:53:00;;;;;;;47.57;21.87;;;;;;;4.28;75.24;100580.53;5024782;28;20026;-64
2022/03/30 05:55:25;;;;;;;49.33;21.73;;;;;;;4.36;75.48;100575.44;5026619;28;20109;-63
2022/03/30 05:57:50;;;;;;;48.83;21.87;;;;;;;4.41;75.39;100582.91;5030442;28;20485;-63
2022/03/30 06:00:16;;;;;;;41.93;20.80;;;;;;;4.44;75.43;100582.63;5028237;28;20531;-64
2022/03/30 06:02:41;;;;;;;50.13;22.40;;;;;;;4.48;75.65;100584.00;5029948;28;20031;-63
2022/03/30 06:05:07;;;;;;;45.93;22.20;;;;;;;4.53;75.70;100593.13;5021715;28;20032;-63
2022/03/30 06:07:32;;;;;;;52.17;21.97;;;;;;;4.54;75.47;100581.66;5027860;28;20372;-64
2022/03/30 06:09:59;;;;;;;48.60;22.10;;;;;;;4.54;75.38;100579.03;5014256;28;20034;-63
2022/03/30 06:12:24;;;;;;;53.33;22.17;;;;;;;4.48;75.18;100584.00;5034836;28;20083;-64
2022/03/30 06:14:51;;;;;;;45.60;21.60;;;;;;;4.48;75.30;100581.38;5035581;28;20029;-63
2022/03/30 06:17:18;;;;;;;42.50;21.43;;;;;;;4.45;75.29;100579.84;5029784;28;20026;-64
2022/03/30 06:19:45;;;;;;;47.93;21.33;;;;;;;4.47;75.41;100588.44;5023153;28;20025;-63
2022/03/30 06:22:12;;;;;;;54.73;22.10;;;;;;;4.52;75.65;100585.38;5029901;28;20083;-64
2022/03/30 06:24:39;;;;;;;46.20;22.60;;;;;;;4.58;75.80;100585.66;5029238;28;20083;-64
2022/03/30 06:27:06;;;;;;;50.20;23.27;;;;;;;4.69;76.02;100584.72;5029703;28;20511;-63
2022/03/30 06:29:33;;;;;;;50.60;22.83;;;;;;;4.81;76.12;100585.38;5026838;28;20022;-63
2022/03/30 06:31:58;;;;;;;51.90;22.70;;;;;;;4.96;76.07;100590.09;5028840;28;20041;-63
2022/03/30 06:34:23;;;;;;;50.77;22.13;;;;;;;5.07;76.00;100586.47;5029586;28;20083;-64
2022/03/30 06:36:48;;;;;;;45.13;22.70;;;;;;;5.18;76.00;100588.09;5029532;28;20365;-64
2022/03/30 06:39:14;;;;;;;46.03;22.83;;;;;;;5.34;75.92;100592.78;5027465;28;20034;-63
2022/03/30 06:41:39;;;;;;;48.17;22.40;;;;;;;5.46;75.70;100596.91;5029796;28;20025;-63
2022/03/30 06:44:05;;;;;;;49.77;21.20;;;;;;;5.57;75.39;100602.84;5028762;28;20053;-63
2022/03/30 06:46:33;;;;;;;58.57;23.50;;;;;;;5.70;75.20;100599.88;5023551;28;20091;-64
2022/03/30 06:49:00;;;;;;;47.80;22.00;;;;;;;5.73;74.62;100599.56;5024429;28;20033;-63
2022/03/30 06:51:25;;;;;;;50.40;22.47;;;;;;;5.82;74.77;100603.16;5028031;28;20076;-63
2022/03/30 06:53:51;;;;;;;44.50;21.63;;;;;;;5.87;74.22;100593.84;5021124;28;20489;-63
2022/03/30 06:56:16;;;;;;;51.57;23.20;;;;;;;5.95;74.58;100592.28;5018176;28;20109;-63
2022/03/30 06:58:41;;;;;;;45.73;22.37;;;;;;;6.02;74.50;100590.72;5023432;28;20029;-63
2022/03/30 07:01:07;;;;;;;46.17;22.97;;;;;;;6.11;74.42;100595.13;5025225;28;20525;-63
2022/03/30 07:03:32;;;;;;;47.33;21.83;;;;;;;6.18;74.17;100593.56;5020784;28;20096;-63
2022/03/30 07:05:57;;;;;;;44.43;22.50;;;;;;;6.25;74.02;100583.25;5022981;28;20577;-63
2022/03/30 07:11:07;;;;;;;44.37;21.27;;;;;;;6.38;73.88;100576.63;5025142;28;20201;-63
2022/03/30 07:13:33;;;;;;;47.60;22.77;;;;;;;6.51;73.51;100578.91;5028651;28;20021;-64
2022/03/30 07:15:59;;;;;;;42.57;21.70;;;;;;;6.65;73.41;100593.34;5028377;28;20033;-63
2022/03/30 07:18:25;;;;;;;51.17;21.60;;;;;;;6.73;73.12;100581.06;5024675;28;20037;-63
2022/03/30 07:20:50;;;;;;;46.57;21.07;;;;;;;6.82;72.88;100587.25;5028827;28;20032;-63
2022/03/30 07:23:16;;;;;;;45.37;20.33;;;;;;;6.91;72.97;100586.31;5028397;28;20021;-64
2022/03/30 07:25:41;;;;;;;48.17;22.10;;;;;;;6.99;72.29;100589.03;5022269;28;20033;-63
2022/03/30 07:28:07;;;;;;;42.90;21.77;;;;;;;7.18;72.44;100592.47;5015503;28;20174;-64
2022/03/30 07:30:33;;;;;;;49.53;21.60;;;;;;;7.35;72.09;100583.66;5021011;28;20088;-63
2022/03/30 07:32:59;;;;;;;55.40;21.80;;;;;;;7.39;71.25;100587.66;5016844;28;20060;-63
2022/03/30 07:35:27;;;;;;;46.40;21.33;;;;;;;7.42;70.86;100589.97;5025460;28;20033;-64
2022/03/30 07:37:55;;;;;;;47.35;20.98;;;;;;;7.48;70.86;100581.41;5028204;28;20477;-63
2022/03/30 07:40:24;;;;;;;45.57;21.30;;;;;;;7.66;70.63;100582.19;5027823;28;20022;-63
2022/03/30 07:42:51;;;;;;;45.80;20.85;;;;;;;7.74;70.40;100589.31;5028037;28;20036;-63
2022/03/30 07:45:17;;;;;;;47.83;20.90;;;;;;;7.89;70.33;100582.47;5022152;28;20084;-63
2022/03/30 07:47:43;;;;;;;41.87;20.20;;;;;;;8.01;69.92;100582.97;5027719;28;20125;-64
2022/03/30 07:50:09;;;;;;;48.00;20.63;;;;;;;8.07;69.21;100579.69;5026696;28;20179;-63
2022/03/30 07:52:35;;;;;;;48.65;19.30;;;;;;;8.16;69.12;100584.03;5027861;28;20020;-62
2022/03/30 07:55:00;;;;;;;36.83;18.83;;;;;;;8.26;68.60;100574.13;5028323;28;20021;-62
2022/03/30 07:57:29;;;;;;;39.15;18.95;;;;;;;8.37;67.96;100576.50;5028489;28;20022;-63
2022/03/30 07:59:56;;;;;;;38.08;18.38;;;;;;;8.46;67.50;100580.00;5023535;28;20036;-63
2022/03/30 08:02:22;;;;;;;48.20;18.20;;;;;;;8.55;67.42;100578.19;5027496;28;20507;-64
2022/03/30 08:04:48;;;;;;;35.75;17.45;;;;;;;8.62;66.95;100581.81;5028232;28;20029;-64
2022/03/30 08:07:14;;;;;;;37.63;17.95;;;;;;;8.70;66.67;100581.84;5027605;28;20049;-64
2022/03/30 08:09:40;;;;;;;35.63;17.05;;;;;;;8.78;66.45;100587.13;5025550;28;20039;-63
2022/03/30 08:12:07;;;;;;;35.53;17.20;;;;;;;8.79;65.96;100575.56;5027267;28;20049;-63
2022/03/30 08:14:32;;;;;;;36.55;17.40;;;;;;;8.88;65.42;100589.63;5027970;28;20032;-63
2022/03/30 08:16:57;;;;;;;42.72;17.95;;;;;;;8.88;65.64;100581.66;5027821;28;20264;-63
2022/03/30 08:19:23;;;;;;;35.67;17.23;;;;;;;8.91;64.88;100592.75;5026371;28;20218;-64
2022/03/30 08:24:34;;;;;;;42.08;18.05;;;;;;;8.93;64.98;100598.72;5021442;28;20615;-63
2022/03/30 08:26:59;;;;;;;35.00;16.65;;;;;;;8.98;65.21;100591.13;5027843;28;20104;-63
2022/03/30 08:29:24;;;;;;;43.05;17.98;;;;;;;9.05;65.12;100590.44;5026280;28;20037;-63
2022/03/30 08:31:49;;;;;;;35.67;17.73;;;;;;;9.14;64.98;100589.44;5027611;28;20030;-63
2022/03/30 08:34:15;;;;;;;39.53;17.45;;;;;;;9.17;65.13;100584.63;5027404;28;20030;-63
2022/03/30 08:36:42;;;;;;;44.38;17.95;;;;;;;9.18;64.38;100583.63;5027928;28;20017;-63
2022/03/30 08:39:11;;;;;;;36.97;16.92;;;;;;;9.25;64.63;100581.13;5025033;28;20033;-63
2022/03/30 08:41:44;;;;;;;31.33;15.82;;;;;;;9.32;64.54;100585.63;5027362;28;20041;-64
2022/03/30 08:44:14;;;;;;;36.00;16.98;;;;;;;9.36;64.39;100572.03;5026342;28;20029;-64
2022/03/30 08:46:40;;;;;;;32.60;17.70;;;;;;;9.46;64.47;100578.78;5027822;28;20033;-64
2022/03/30 08:49:05;;;;;;;39.22;17.42;;;;;;;9.49;64.03;100573.13;5017136;28;20086;-64
2022/03/30 08:51:32;;;;;;;32.22;16.05;;;;;;;9.57;63.83;100569.66;5027363;28;20029;-63
2022/03/30 08:53:57;;;;;;;29.55;16.40;;;;;;;9.61;63.88;100571.78;5026276;28;20022;-64
2022/03/30 08:56:24;;;;;;;35.50;16.52;;;;;;;9.70;63.67;100574.41;5008482;28;20041;-64
2022/03/30 08:58:53;;;;;;;36.28;16.17;;;;;;;9.75;63.42;100578.19;5024934;28;20037;-64
2022/03/30 09:01:21;;;;;;;34.58;16.05;;;;;;;9.81;63.67;100572.19;5025780;28;20036;-64
2022/03/30 09:03:58;;;;;;;29.98;16.08;;;;;;;9.94;63.22;100569.84;5025786;28;20033;-63
2022/03/30 09:06:59;;;;;;;35.15;17.38;;;;;;;10.05;62.92;100565.13;5027298;28;20025;-64
2022/03/30 09:09:29;;;;;;;39.65;17.05;;;;;;;10.11;62.58;100564.44;5026575;28;20391;-63
2022/03/30 09:11:55;;;;;;;34.42;16.25;;;;;;;10.19;62.34;100561.75;5026159;28;20112;-64
2022/03/30 09:14:22;;;;;;;33.17;16.23;;;;;;;10.31;62.32;100562.19;5027387;28;20097;-64
2022/03/30 09:16:50;;;;;;;34.70;15.98;;;;;;;10.36;61.77;100567.78;5026798;28;20039;-64
2022/03/30 09:19:17;;;;;;;32.50;15.45;;;;;;;10.41;61.40;100566.28;5025063;28;20096;-64
2022/03/30 09:21:48;;;;;;;35.60;15.77;;;;;;;10.46;60.60;100561.28;5017497;28;20112;-64
2022/03/30 09:24:18;;;;;;;28.38;15.38;;;;;;;10.57;60.73;100554.72;5013964;28;20030;-63
2022/03/30 09:26:45;;;;;;;31.77;14.60;;;;;;;10.65;60.64;100553.81;5025685;28;20022;-64
2022/03/30 09:29:11;;;;;;;31.23;15.60;;;;;;;10.69;60.03;100552.47;5026131;28;20064;-64
2022/03/30 09:31:39;;;;;;;30.52;15.30;;;;;;;10.76;59.69;100553.41;5016656;28;20493;-64
2022/03/30 09:34:06;;;;;;;30.92;15.65;;;;;;;10.85;59.86;100550.50;5030694;28;20022;-64
2022/03/30 09:36:35;;;;;;;29.17;15.18;;;;;;;10.91;59.45;100546.28;5017990;28;20029;-64
2022/03/30 09:39:01;;;;;;;28.73;14.88;;;;;;;11.02;59.08;100540.56;5021302;28;20036;-64
2022/03/30 09:41:44;;;;;;;25.58;14.32;;;;;;;11.15;58.71;100538.09;5030879;28;20020;-64
2022/03/30 09:44:09;;;;;;;30.15;14.80;;;;;;;11.18;58.38;100534.25;5026144;28;20030;-64
2022/03/30 09:46:50;;;;;;;27.65;15.02;;;;;;;11.33;58.33;100531.63;5023105;28;20029;-64
2022/03/30 09:49:31;;;;;;;29.70;15.07;;;;;;;11.35;57.84;100527.75;5023631;28;20052;-63
2022/03/30 09:51:56;;;;;;;24.80;14.80;;;;;;;11.39;57.62;100529.03;5034686;28;20026;-64
2022/03/30 09:55:04;;;;;;;29.13;15.27;;;;;;;11.57;58.14;100526.03;5032576;28;20254;-64
2022/03/30 09:57:43;;;;;;;31.42;15.30;;;;;;;11.64;57.50;100523.44;4999741;28;20030;-64
2022/03/30 10:00:18;;;;;;;32.25;15.45;;;;;;;11.66;57.11;100529.41;4998023;28;20117;-64
2022/03/30 10:03:02;;;;;;;26.48;15.32;;;;;;;11.74;56.67;100518.66;5019255;28;20071;-64
2022/03/30 10:05:28;;;;;;;29.48;15.18;;;;;;;11.90;56.51;100517.66;5024582;28;20033;-64
2022/03/30 10:07:55;;;;;;;42.35;15.40;;;;;;;12.02;56.30;100511.66;5030195;28;20492;-63
2022/03/30 10:10:20;;;;;;;27.15;15.25;;;;;;;12.28;56.38;100518.28;5028663;28;20527;-64
2022/03/30 10:12:46;;;;;;;27.60;15.30;;;;;;;12.40;56.01;100519.41;5026570;28;20038;-64
2022/03/30 10:15:12;;;;;;;30.17;15.25;;;;;;;12.56;55.42;100510.34;5021944;28;20033;-64
2022/03/30 10:17:38;;;;;;;25.55;14.95;;;;;;;12.63;55.11;100509.38;5022044;28;20078;-64
2022/03/30 10:20:05;;;;;;;27.35;15.20;;;;;;;12.70;54.48;100515.56;5026327;28;20037;-64
2022/03/30 10:22:47;;;;;;;25.52;15.15;;;;;;;12.65;53.73;100514.50;5026378;28;20029;-64
2022/03/30 10:25:52;;;;;;;26.67;14.90;;;;;;;12.50;53.48;100517.25;5023170;28;20037;-63
2022/03/30 10:28:40;;;;;;;27.90;15.02;;;;;;;12.37;53.65;100504.63;5023003;28;20048;-63
2022/03/30 10:31:07;;;;;;;32.20;15.57;;;;;;;12.19;53.71;100506.94;5019486;28;20119;-64
2022/03/30 10:33:40;;;;;;;26.63;15.38;;;;;;;12.24;54.07;100511.69;5016809;28;20031;-64
2022/03/30 10:36:32;;;;;;;27.60;15.02;;;;;;;12.49;53.85;100504.97;5021413;28;20607;-63
2022/03/30 10:39:15;;;;;;;24.40;14.60;;;;;;;12.79;54.36;100496.81;5017657;28;20037;-64
2022/03/30 10:42:03;;;;;;;23.73;14.18;;;;;;;12.97;53.38;100497.97;5016421;28;20041;-64
2022/03/30 10:44:45;;;;;;;24.27;15.20;;;;;;;13.07;53.35;100488.81;5028744;28;20439;-64
2022/03/30 10:47:14;;;;;;;26.05;14.77;;;;;;;13.13;53.21;100483.50;5028237;28;20590;-64
2022/03/30 10:49:48;;;;;;;27.20;14.40;;;;;;;13.26;53.33;100488.94;5018938;28;20040;-64
2022/03/30 10:52:32;;;;;;;23.98;14.13;;;;;;;13.39;52.34;100482.06;5027310;28;20025;-64
2022/03/30 10:55:12;;;;;;;25.58;14.98;;;;;;;13.47;52.33;100485.38;5019616;28;20022;-64
2022/03/30 10:57:57;;;;;;;23.15;14.18;;;;;;;13.43;52.06;100473.44;5022083;28;20030;-64
2022/03/30 11:00:23;;;;;;;27.17;14.65;;;;;;;13.42;51.39;100481.66;5020636;28;20032;-64
2022/03/30 11:02:49;;;;;;;22.83;13.63;;;;;;;13.43;50.81;100462.78;5019307;28;20618;-64
2022/03/30 11:05:17;;;;;;;25.38;14.05;;;;;;;13.42;50.77;100461.13;5013762;28;20092;-64
2022/03/30 11:07:43;;;;;;;24.38;13.73;;;;;;;13.38;50.34;100459.06;5019076;28;20502;-64
2022/03/30 11:10:15;;;;;;;24.63;12.25;;;;;;;13.33;50.12;100460.50;5015234;28;20026;-64
2022/03/30 11:13:05;;;;;;;28.40;14.25;;;;;;;13.22;50.07;100449.53;5020046;28;20029;-64
2022/03/30 11:15:51;;;;;;;21.27;12.13;;;;;;;13.20;50.00;100446.25;5018472;28;20116;-64
2022/03/30 11:18:18;;;;;;;21.83;13.32;;;;;;;13.20;50.63;100440.91;5013430;28;20083;-64
2022/03/30 11:21:08;;;;;;;22.33;13.07;;;;;;;13.25;50.81;100449.97;5025870;28;20045;-64
2022/03/30 11:23:35;;;;;;;25.05;13.77;;;;;;;13.29;50.38;100445.88;5026256;28;20026;-64